sensor_id;sensor_type;location;lat;lon;timestamp;P1;durP1;ratioP1;P2;durP2;ratioP2
34549;SDS011;66080;52.078;5.626;2023-12-20T00:01:39;519.33;;;462.73;;
34549;SDS011;66080;52.078;5.626;2023-12-20T00:04:05;515.55;;;458.98;;
34549;SDS011;66080;52.078;5.626;2023-12-20T00:06:31;518.10;;;460.92;;
34549;SDS011;66080;52.078;5.626;2023-12-20T00:09:00;520.83;;;463.92;;
34549;SDS011;66080;52.078;5.626;2023-12-20T00:11:26;518.05;;;461.23;;
34549;SDS011;66080;52.078;5.626;2023-12-20T00:13:54;512.80;;;456.10;;
34549;SDS011;66080;52.078;5.626;2023-12-20T00:16:20;515.05;;;458.45;;
34549;SDS011;66080;52.078;5.626;2023-12-20T00:18:46;512.22;;;455.63;;
34549;SDS011;66080;52.078;5.626;2023-12-20T00:21:12;511.58;;;454.80;;
34549;SDS011;66080;52.078;5.626;2023-12-20T00:23:40;509.77;;;450.35;;
34549;SDS011;66080;52.078;5.626;2023-12-20T00:26:06;513.35;;;455.05;;
34549;SDS011;66080;52.078;5.626;2023-12-20T00:28:32;508.70;;;452.20;;
34549;SDS011;66080;52.078;5.626;2023-12-20T00:30:59;507.65;;;451.02;;
34549;SDS011;66080;52.078;5.626;2023-12-20T00:33:24;512.58;;;456.20;;
34549;SDS011;66080;52.078;5.626;2023-12-20T00:35:50;510.00;;;449.73;;
34549;SDS011;66080;52.078;5.626;2023-12-20T00:38:19;511.60;;;455.08;;
34549;SDS011;66080;52.078;5.626;2023-12-20T00:40:45;509.73;;;452.75;;
34549;SDS011;66080;52.078;5.626;2023-12-20T00:43:11;513.00;;;456.13;;
34549;SDS011;66080;52.078;5.626;2023-12-20T00:45:37;512.83;;;456.27;;
34549;SDS011;66080;52.078;5.626;2023-12-20T00:48:06;508.58;;;451.88;;
34549;SDS011;66080;52.078;5.626;2023-12-20T00:50:32;509.20;;;452.65;;
34549;SDS011;66080;52.078;5.626;2023-12-20T00:52:58;507.90;;;449.73;;
34549;SDS011;66080;52.078;5.626;2023-12-20T00:55:24;513.83;;;450.88;;
34549;SDS011;66080;52.078;5.626;2023-12-20T00:57:50;509.98;;;453.40;;
34549;SDS011;66080;52.078;5.626;2023-12-20T01:00:16;509.23;;;450.08;;
34549;SDS011;66080;52.078;5.626;2023-12-20T01:02:42;508.60;;;449.35;;
34549;SDS011;66080;52.078;5.626;2023-12-20T01:05:08;508.60;;;441.50;;
34549;SDS011;66080;52.078;5.626;2023-12-20T01:07:34;509.17;;;440.70;;
34549;SDS011;66080;52.078;5.626;2023-12-20T01:10:03;511.10;;;436.98;;
34549;SDS011;66080;52.078;5.626;2023-12-20T01:12:29;510.93;;;444.57;;
34549;SDS011;66080;52.078;5.626;2023-12-20T01:14:57;507.45;;;440.50;;
34549;SDS011;66080;52.078;5.626;2023-12-20T01:17:23;506.77;;;442.77;;
34549;SDS011;66080;52.078;5.626;2023-12-20T01:19:49;510.33;;;441.90;;
34549;SDS011;66080;52.078;5.626;2023-12-20T01:22:15;508.35;;;443.05;;
34549;SDS011;66080;52.078;5.626;2023-12-20T01:24:41;506.42;;;440.95;;
34549;SDS011;66080;52.078;5.626;2023-12-20T01:27:07;505.08;;;437.48;;
34549;SDS011;66080;52.078;5.626;2023-12-20T01:29:33;507.00;;;432.42;;
34549;SDS011;66080;52.078;5.626;2023-12-20T01:31:59;510.80;;;430.58;;
34549;SDS011;66080;52.078;5.626;2023-12-20T01:34:25;505.95;;;428.38;;
34549;SDS011;66080;52.078;5.626;2023-12-20T01:36:51;506.42;;;433.85;;
34549;SDS011;66080;52.078;5.626;2023-12-20T01:39:17;504.27;;;432.38;;
34549;SDS011;66080;52.078;5.626;2023-12-20T01:41:46;504.80;;;425.20;;
34549;SDS011;66080;52.078;5.626;2023-12-20T01:44:12;506.27;;;428.17;;
34549;SDS011;66080;52.078;5.626;2023-12-20T01:46:38;505.92;;;428.00;;
34549;SDS011;66080;52.078;5.626;2023-12-20T01:49:04;503.52;;;425.85;;
34549;SDS011;66080;52.078;5.626;2023-12-20T01:51:30;510.98;;;420.17;;
34549;SDS011;66080;52.078;5.626;2023-12-20T01:53:56;505.15;;;424.30;;
34549;SDS011;66080;52.078;5.626;2023-12-20T01:56:23;506.67;;;424.60;;
34549;SDS011;66080;52.078;5.626;2023-12-20T01:58:49;510.90;;;426.10;;
34549;SDS011;66080;52.078;5.626;2023-12-20T02:01:15;506.73;;;427.63;;
34549;SDS011;66080;52.078;5.626;2023-12-20T02:03:42;505.98;;;429.30;;
34549;SDS011;66080;52.078;5.626;2023-12-20T02:06:08;509.63;;;438.65;;
34549;SDS011;66080;52.078;5.626;2023-12-20T02:08:35;509.45;;;441.17;;
34549;SDS011;66080;52.078;5.626;2023-12-20T02:11:01;509.98;;;447.17;;
34549;SDS011;66080;52.078;5.626;2023-12-20T02:13:27;510.23;;;444.15;;
34549;SDS011;66080;52.078;5.626;2023-12-20T02:15:57;509.65;;;444.17;;
34549;SDS011;66080;52.078;5.626;2023-12-20T02:18:23;509.75;;;439.23;;
34549;SDS011;66080;52.078;5.626;2023-12-20T02:20:49;515.58;;;445.98;;
34549;SDS011;66080;52.078;5.626;2023-12-20T02:23:15;510.75;;;442.70;;
34549;SDS011;66080;52.078;5.626;2023-12-20T02:25:41;512.70;;;447.23;;
34549;SDS011;66080;52.078;5.626;2023-12-20T02:28:07;509.17;;;447.55;;
34549;SDS011;66080;52.078;5.626;2023-12-20T02:30:33;511.42;;;447.15;;
34549;SDS011;66080;52.078;5.626;2023-12-20T02:32:59;513.53;;;448.55;;
34549;SDS011;66080;52.078;5.626;2023-12-20T02:35:25;506.90;;;446.20;;
34549;SDS011;66080;52.078;5.626;2023-12-20T02:37:51;511.02;;;447.13;;
34549;SDS011;66080;52.078;5.626;2023-12-20T02:40:17;511.55;;;449.92;;
34549;SDS011;66080;52.078;5.626;2023-12-20T02:42:43;513.15;;;448.05;;
34549;SDS011;66080;52.078;5.626;2023-12-20T02:45:09;511.38;;;446.42;;
34549;SDS011;66080;52.078;5.626;2023-12-20T02:47:35;510.55;;;447.33;;
34549;SDS011;66080;52.078;5.626;2023-12-20T02:50:01;510.70;;;449.05;;
34549;SDS011;66080;52.078;5.626;2023-12-20T02:52:28;509.47;;;444.23;;
34549;SDS011;66080;52.078;5.626;2023-12-20T02:54:54;512.00;;;447.25;;
34549;SDS011;66080;52.078;5.626;2023-12-20T02:57:20;512.92;;;448.10;;
34549;SDS011;66080;52.078;5.626;2023-12-20T02:59:46;508.92;;;442.35;;
34549;SDS011;66080;52.078;5.626;2023-12-20T03:02:12;505.83;;;442.27;;
34549;SDS011;66080;52.078;5.626;2023-12-20T03:04:38;511.42;;;435.20;;
34549;SDS011;66080;52.078;5.626;2023-12-20T03:07:07;505.08;;;433.63;;
34549;SDS011;66080;52.078;5.626;2023-12-20T03:09:37;503.73;;;412.75;;
34549;SDS011;66080;52.078;5.626;2023-12-20T03:12:03;492.23;;;383.90;;
34549;SDS011;66080;52.078;5.626;2023-12-20T03:14:29;501.02;;;373.88;;
34549;SDS011;66080;52.078;5.626;2023-12-20T03:16:55;490.85;;;374.10;;
34549;SDS011;66080;52.078;5.626;2023-12-20T03:19:21;497.42;;;409.58;;
34549;SDS011;66080;52.078;5.626;2023-12-20T03:21:47;494.50;;;398.17;;
34549;SDS011;66080;52.078;5.626;2023-12-20T03:24:13;501.83;;;405.25;;
34549;SDS011;66080;52.078;5.626;2023-12-20T03:26:39;500.75;;;413.35;;
34549;SDS011;66080;52.078;5.626;2023-12-20T03:29:05;498.60;;;417.23;;
34549;SDS011;66080;52.078;5.626;2023-12-20T03:31:31;514.88;;;431.52;;
34549;SDS011;66080;52.078;5.626;2023-12-20T03:33:57;509.63;;;443.92;;
34549;SDS011;66080;52.078;5.626;2023-12-20T03:36:23;507.58;;;442.50;;
34549;SDS011;66080;52.078;5.626;2023-12-20T03:38:49;514.67;;;457.70;;
34549;SDS011;66080;52.078;5.626;2023-12-20T03:41:15;431.85;;;233.68;;
34549;SDS011;66080;52.078;5.626;2023-12-20T03:43:41;493.73;;;388.02;;
34549;SDS011;66080;52.078;5.626;2023-12-20T03:46:10;505.02;;;416.33;;
34549;SDS011;66080;52.078;5.626;2023-12-20T03:48:38;502.33;;;424.15;;
34549;SDS011;66080;52.078;5.626;2023-12-20T03:51:04;502.23;;;427.92;;
34549;SDS011;66080;52.078;5.626;2023-12-20T03:53:30;511.38;;;432.48;;
34549;SDS011;66080;52.078;5.626;2023-12-20T03:55:56;505.23;;;439.75;;
34549;SDS011;66080;52.078;5.626;2023-12-20T03:58:22;508.33;;;444.30;;
34549;SDS011;66080;52.078;5.626;2023-12-20T04:00:48;512.88;;;444.95;;
34549;SDS011;66080;52.078;5.626;2023-12-20T04:03:14;508.77;;;444.27;;
34549;SDS011;66080;52.078;5.626;2023-12-20T04:05:40;503.70;;;439.40;;
34549;SDS011;66080;52.078;5.626;2023-12-20T04:08:07;505.30;;;439.00;;
34549;SDS011;66080;52.078;5.626;2023-12-20T04:10:33;508.23;;;434.48;;
34549;SDS011;66080;52.078;5.626;2023-12-20T04:12:59;512.30;;;441.08;;
34549;SDS011;66080;52.078;5.626;2023-12-20T04:15:25;506.58;;;445.83;;
34549;SDS011;66080;52.078;5.626;2023-12-20T04:17:51;510.95;;;441.10;;
34549;SDS011;66080;52.078;5.626;2023-12-20T04:20:17;505.98;;;443.05;;
34549;SDS011;66080;52.078;5.626;2023-12-20T04:22:43;509.17;;;439.83;;
34549;SDS011;66080;52.078;5.626;2023-12-20T04:25:09;510.15;;;444.20;;
34549;SDS011;66080;52.078;5.626;2023-12-20T04:27:35;511.90;;;442.33;;
34549;SDS011;66080;52.078;5.626;2023-12-20T04:30:01;508.47;;;447.13;;
34549;SDS011;66080;52.078;5.626;2023-12-20T04:32:27;509.65;;;441.92;;
34549;SDS011;66080;52.078;5.626;2023-12-20T04:34:53;507.90;;;441.70;;
34549;SDS011;66080;52.078;5.626;2023-12-20T04:37:19;508.60;;;441.75;;
34549;SDS011;66080;52.078;5.626;2023-12-20T04:39:45;507.60;;;448.77;;
34549;SDS011;66080;52.078;5.626;2023-12-20T04:42:11;515.23;;;448.23;;
34549;SDS011;66080;52.078;5.626;2023-12-20T04:44:37;507.02;;;448.35;;
34549;SDS011;66080;52.078;5.626;2023-12-20T04:47:03;506.08;;;449.10;;
34549;SDS011;66080;52.078;5.626;2023-12-20T04:49:29;513.95;;;451.63;;
34549;SDS011;66080;52.078;5.626;2023-12-20T04:51:55;513.65;;;453.90;;
34549;SDS011;66080;52.078;5.626;2023-12-20T04:54:21;513.03;;;456.05;;
34549;SDS011;66080;52.078;5.626;2023-12-20T04:56:47;512.37;;;455.60;;
34549;SDS011;66080;52.078;5.626;2023-12-20T04:59:13;515.80;;;459.05;;
34549;SDS011;66080;52.078;5.626;2023-12-20T05:01:40;515.67;;;459.20;;
34549;SDS011;66080;52.078;5.626;2023-12-20T05:04:06;519.75;;;463.15;;
34549;SDS011;66080;52.078;5.626;2023-12-20T05:06:32;520.10;;;463.38;;
34549;SDS011;66080;52.078;5.626;2023-12-20T05:08:58;523.40;;;466.73;;
34549;SDS011;66080;52.078;5.626;2023-12-20T05:11:24;525.13;;;468.17;;
34549;SDS011;66080;52.078;5.626;2023-12-20T05:13:50;531.22;;;474.35;;
34549;SDS011;66080;52.078;5.626;2023-12-20T05:16:16;526.03;;;468.63;;
34549;SDS011;66080;52.078;5.626;2023-12-20T05:18:46;521.80;;;464.38;;
34549;SDS011;66080;52.078;5.626;2023-12-20T05:21:12;513.55;;;456.85;;
34549;SDS011;66080;52.078;5.626;2023-12-20T05:23:38;514.92;;;458.13;;
34549;SDS011;66080;52.078;5.626;2023-12-20T05:26:04;518.58;;;461.70;;
34549;SDS011;66080;52.078;5.626;2023-12-20T05:28:30;519.17;;;462.40;;
34549;SDS011;66080;52.078;5.626;2023-12-20T05:30:56;516.63;;;459.75;;
34549;SDS011;66080;52.078;5.626;2023-12-20T05:33:22;517.55;;;460.70;;
34549;SDS011;66080;52.078;5.626;2023-12-20T05:35:48;519.83;;;462.98;;
34549;SDS011;66080;52.078;5.626;2023-12-20T05:38:14;525.40;;;468.20;;
34549;SDS011;66080;52.078;5.626;2023-12-20T05:40:40;520.13;;;463.13;;
34549;SDS011;66080;52.078;5.626;2023-12-20T05:43:06;534.83;;;477.25;;
34549;SDS011;66080;52.078;5.626;2023-12-20T05:45:31;541.17;;;483.85;;
34549;SDS011;66080;52.078;5.626;2023-12-20T05:47:57;550.25;;;492.60;;
34549;SDS011;66080;52.078;5.626;2023-12-20T05:50:23;538.03;;;480.52;;
34549;SDS011;66080;52.078;5.626;2023-12-20T05:52:50;548.20;;;490.63;;
34549;SDS011;66080;52.078;5.626;2023-12-20T05:55:16;548.42;;;490.35;;
34549;SDS011;66080;52.078;5.626;2023-12-20T05:57:42;545.75;;;487.40;;
34549;SDS011;66080;52.078;5.626;2023-12-20T06:00:08;544.63;;;487.08;;
34549;SDS011;66080;52.078;5.626;2023-12-20T06:02:34;543.97;;;486.50;;
34549;SDS011;66080;52.078;5.626;2023-12-20T06:05:02;553.70;;;496.15;;
34549;SDS011;66080;52.078;5.626;2023-12-20T06:07:27;560.13;;;502.25;;
34549;SDS011;66080;52.078;5.626;2023-12-20T06:09:54;556.27;;;498.37;;
34549;SDS011;66080;52.078;5.626;2023-12-20T06:12:20;549.00;;;491.17;;
34549;SDS011;66080;52.078;5.626;2023-12-20T06:14:46;554.75;;;496.80;;
34549;SDS011;66080;52.078;5.626;2023-12-20T06:17:12;562.28;;;504.13;;
34549;SDS011;66080;52.078;5.626;2023-12-20T06:19:38;555.67;;;497.67;;
34549;SDS011;66080;52.078;5.626;2023-12-20T06:22:04;564.77;;;506.33;;
34549;SDS011;66080;52.078;5.626;2023-12-20T06:24:30;561.42;;;503.05;;
34549;SDS011;66080;52.078;5.626;2023-12-20T06:27:00;564.88;;;506.63;;
34549;SDS011;66080;52.078;5.626;2023-12-20T06:29:26;569.63;;;511.50;;
34549;SDS011;66080;52.078;5.626;2023-12-20T06:31:52;569.85;;;511.58;;
34549;SDS011;66080;52.078;5.626;2023-12-20T06:34:18;569.28;;;510.60;;
34549;SDS011;66080;52.078;5.626;2023-12-20T06:36:43;566.60;;;508.52;;
34549;SDS011;66080;52.078;5.626;2023-12-20T06:39:09;574.72;;;516.33;;
34549;SDS011;66080;52.078;5.626;2023-12-20T06:41:37;568.47;;;510.48;;
34549;SDS011;66080;52.078;5.626;2023-12-20T06:44:03;566.40;;;508.27;;
34549;SDS011;66080;52.078;5.626;2023-12-20T06:46:29;449.10;;;261.38;;
34549;SDS011;66080;52.078;5.626;2023-12-20T06:48:55;514.03;;;456.98;;
34549;SDS011;66080;52.078;5.626;2023-12-20T06:51:21;439.65;;;247.23;;
34549;SDS011;66080;52.078;5.626;2023-12-20T06:53:50;473.02;;;339.45;;
34549;SDS011;66080;52.078;5.626;2023-12-20T06:56:16;464.00;;;343.20;;
34549;SDS011;66080;52.078;5.626;2023-12-20T06:58:42;463.52;;;331.75;;
34549;SDS011;66080;52.078;5.626;2023-12-20T07:01:11;474.17;;;345.15;;
34549;SDS011;66080;52.078;5.626;2023-12-20T07:03:37;490.60;;;393.13;;
34549;SDS011;66080;52.078;5.626;2023-12-20T07:06:04;490.15;;;402.42;;
34549;SDS011;66080;52.078;5.626;2023-12-20T07:08:30;479.88;;;378.45;;
34549;SDS011;66080;52.078;5.626;2023-12-20T07:10:56;486.33;;;392.02;;
34549;SDS011;66080;52.078;5.626;2023-12-20T07:13:22;490.63;;;405.33;;
34549;SDS011;66080;52.078;5.626;2023-12-20T07:15:48;488.77;;;402.17;;
34549;SDS011;66080;52.078;5.626;2023-12-20T07:18:14;494.67;;;403.27;;
34549;SDS011;66080;52.078;5.626;2023-12-20T07:20:40;492.60;;;396.20;;
34549;SDS011;66080;52.078;5.626;2023-12-20T07:23:06;476.95;;;364.77;;
34549;SDS011;66080;52.078;5.626;2023-12-20T07:25:32;473.67;;;351.85;;
34549;SDS011;66080;52.078;5.626;2023-12-20T07:27:58;484.08;;;375.73;;
34549;SDS011;66080;52.078;5.626;2023-12-20T07:30:24;484.50;;;386.02;;
34549;SDS011;66080;52.078;5.626;2023-12-20T07:32:50;485.50;;;392.08;;
34549;SDS011;66080;52.078;5.626;2023-12-20T07:35:17;490.17;;;394.75;;
34549;SDS011;66080;52.078;5.626;2023-12-20T07:37:43;489.45;;;406.45;;
34549;SDS011;66080;52.078;5.626;2023-12-20T07:40:09;490.35;;;410.10;;
34549;SDS011;66080;52.078;5.626;2023-12-20T07:42:35;489.15;;;406.90;;
34549;SDS011;66080;52.078;5.626;2023-12-20T07:45:01;497.13;;;410.48;;
34549;SDS011;66080;52.078;5.626;2023-12-20T07:47:27;493.95;;;408.48;;
34549;SDS011;66080;52.078;5.626;2023-12-20T07:49:53;493.52;;;411.90;;
34549;SDS011;66080;52.078;5.626;2023-12-20T07:52:19;497.70;;;421.10;;
34549;SDS011;66080;52.078;5.626;2023-12-20T07:54:47;496.27;;;415.50;;
34549;SDS011;66080;52.078;5.626;2023-12-20T07:57:13;500.38;;;422.05;;
34549;SDS011;66080;52.078;5.626;2023-12-20T07:59:39;496.30;;;418.27;;
34549;SDS011;66080;52.078;5.626;2023-12-20T08:02:05;496.88;;;418.75;;
34549;SDS011;66080;52.078;5.626;2023-12-20T08:04:31;496.80;;;424.42;;
34549;SDS011;66080;52.078;5.626;2023-12-20T08:06:57;498.45;;;421.42;;
34549;SDS011;66080;52.078;5.626;2023-12-20T08:09:23;496.90;;;420.63;;
34549;SDS011;66080;52.078;5.626;2023-12-20T08:11:49;498.40;;;429.38;;
34549;SDS011;66080;52.078;5.626;2023-12-20T08:14:15;499.25;;;424.90;;
34549;SDS011;66080;52.078;5.626;2023-12-20T08:16:41;499.92;;;426.25;;
34549;SDS011;66080;52.078;5.626;2023-12-20T08:19:07;501.02;;;436.80;;
34549;SDS011;66080;52.078;5.626;2023-12-20T08:21:33;505.08;;;441.85;;
34549;SDS011;66080;52.078;5.626;2023-12-20T08:23:59;501.10;;;432.83;;
34549;SDS011;66080;52.078;5.626;2023-12-20T08:26:26;500.00;;;441.20;;
34549;SDS011;66080;52.078;5.626;2023-12-20T08:28:52;510.25;;;441.58;;
34549;SDS011;66080;52.078;5.626;2023-12-20T08:31:18;507.25;;;445.95;;
34549;SDS011;66080;52.078;5.626;2023-12-20T08:33:44;502.08;;;442.35;;
34549;SDS011;66080;52.078;5.626;2023-12-20T08:36:11;505.25;;;445.98;;
34549;SDS011;66080;52.078;5.626;2023-12-20T08:38:37;501.83;;;442.92;;
34549;SDS011;66080;52.078;5.626;2023-12-20T08:41:03;504.38;;;444.80;;
34549;SDS011;66080;52.078;5.626;2023-12-20T08:43:39;507.55;;;451.40;;
34549;SDS011;66080;52.078;5.626;2023-12-20T08:46:07;504.52;;;445.73;;
34549;SDS011;66080;52.078;5.626;2023-12-20T08:48:37;506.33;;;443.95;;
34549;SDS011;66080;52.078;5.626;2023-12-20T08:51:03;515.63;;;459.13;;
34549;SDS011;66080;52.078;5.626;2023-12-20T08:53:32;516.22;;;459.73;;
34549;SDS011;66080;52.078;5.626;2023-12-20T08:55:58;519.28;;;462.92;;
34549;SDS011;66080;52.078;5.626;2023-12-20T08:58:26;523.33;;;466.83;;
34549;SDS011;66080;52.078;5.626;2023-12-20T09:00:52;526.28;;;469.60;;
34549;SDS011;66080;52.078;5.626;2023-12-20T09:03:18;531.95;;;475.35;;
34549;SDS011;66080;52.078;5.626;2023-12-20T09:05:44;528.80;;;472.25;;
34549;SDS011;66080;52.078;5.626;2023-12-20T09:08:10;529.90;;;472.70;;
34549;SDS011;66080;52.078;5.626;2023-12-20T09:10:37;530.72;;;473.85;;
34549;SDS011;66080;52.078;5.626;2023-12-20T09:13:03;530.90;;;474.15;;
34549;SDS011;66080;52.078;5.626;2023-12-20T09:15:29;520.78;;;464.05;;
34549;SDS011;66080;52.078;5.626;2023-12-20T09:17:55;528.90;;;472.20;;
34549;SDS011;66080;52.078;5.626;2023-12-20T09:20:21;520.92;;;464.30;;
34549;SDS011;66080;52.078;5.626;2023-12-20T09:22:48;524.17;;;467.77;;
34549;SDS011;66080;52.078;5.626;2023-12-20T09:25:14;521.58;;;464.65;;
34549;SDS011;66080;52.078;5.626;2023-12-20T09:27:42;521.43;;;464.80;;
34549;SDS011;66080;52.078;5.626;2023-12-20T09:30:08;521.97;;;464.88;;
34549;SDS011;66080;52.078;5.626;2023-12-20T09:32:34;515.15;;;458.90;;
34549;SDS011;66080;52.078;5.626;2023-12-20T09:35:01;526.60;;;469.85;;
34549;SDS011;66080;52.078;5.626;2023-12-20T09:37:27;529.10;;;472.15;;
34549;SDS011;66080;52.078;5.626;2023-12-20T09:39:54;537.88;;;480.77;;
34549;SDS011;66080;52.078;5.626;2023-12-20T09:42:25;533.97;;;476.67;;
34549;SDS011;66080;52.078;5.626;2023-12-20T09:44:54;533.45;;;476.40;;
34549;SDS011;66080;52.078;5.626;2023-12-20T09:47:20;533.10;;;476.00;;
34549;SDS011;66080;52.078;5.626;2023-12-20T09:49:49;532.53;;;475.83;;
34549;SDS011;66080;52.078;5.626;2023-12-20T09:52:15;537.28;;;480.33;;
34549;SDS011;66080;52.078;5.626;2023-12-20T09:54:42;544.15;;;486.88;;
34549;SDS011;66080;52.078;5.626;2023-12-20T09:57:09;541.33;;;484.23;;
34549;SDS011;66080;52.078;5.626;2023-12-20T09:59:35;543.97;;;486.98;;
34549;SDS011;66080;52.078;5.626;2023-12-20T10:02:01;544.40;;;486.88;;
34549;SDS011;66080;52.078;5.626;2023-12-20T10:04:28;553.67;;;496.13;;
34549;SDS011;66080;52.078;5.626;2023-12-20T10:06:56;557.83;;;499.80;;
34549;SDS011;66080;52.078;5.626;2023-12-20T10:09:22;557.40;;;500.00;;
34549;SDS011;66080;52.078;5.626;2023-12-20T10:11:49;554.60;;;496.95;;
34549;SDS011;66080;52.078;5.626;2023-12-20T10:14:15;558.72;;;501.05;;
34549;SDS011;66080;52.078;5.626;2023-12-20T10:16:41;557.60;;;499.90;;
34549;SDS011;66080;52.078;5.626;2023-12-20T10:19:07;558.78;;;501.13;;
34549;SDS011;66080;52.078;5.626;2023-12-20T10:21:33;564.70;;;507.08;;
34549;SDS011;66080;52.078;5.626;2023-12-20T10:24:00;560.88;;;502.98;;
34549;SDS011;66080;52.078;5.626;2023-12-20T10:26:26;559.58;;;502.08;;
34549;SDS011;66080;52.078;5.626;2023-12-20T10:28:53;568.67;;;510.75;;
34549;SDS011;66080;52.078;5.626;2023-12-20T10:31:32;560.75;;;503.33;;
34549;SDS011;66080;52.078;5.626;2023-12-20T10:33:58;569.27;;;511.17;;
34549;SDS011;66080;52.078;5.626;2023-12-20T10:36:25;569.05;;;511.17;;
34549;SDS011;66080;52.078;5.626;2023-12-20T10:38:52;579.85;;;521.75;;
34549;SDS011;66080;52.078;5.626;2023-12-20T10:41:18;584.53;;;526.38;;
34549;SDS011;66080;52.078;5.626;2023-12-20T10:43:47;594.10;;;535.58;;
34549;SDS011;66080;52.078;5.626;2023-12-20T10:46:13;592.92;;;534.13;;
34549;SDS011;66080;52.078;5.626;2023-12-20T10:48:39;591.22;;;532.60;;
34549;SDS011;66080;52.078;5.626;2023-12-20T10:51:05;595.78;;;537.03;;
34549;SDS011;66080;52.078;5.626;2023-12-20T10:53:32;424.67;;;247.05;;
34549;SDS011;66080;52.078;5.626;2023-12-20T10:55:59;477.40;;;389.67;;
34549;SDS011;66080;52.078;5.626;2023-12-20T10:58:26;493.75;;;433.13;;
34549;SDS011;66080;52.078;5.626;2023-12-20T11:00:58;507.55;;;452.00;;
34549;SDS011;66080;52.078;5.626;2023-12-20T11:03:26;515.92;;;460.13;;
34549;SDS011;66080;52.078;5.626;2023-12-20T11:06:03;524.33;;;468.55;;
34549;SDS011;66080;52.078;5.626;2023-12-20T11:08:47;522.97;;;466.97;;
34549;SDS011;66080;52.078;5.626;2023-12-20T11:14:05;530.75;;;474.50;;
34549;SDS011;66080;52.078;5.626;2023-12-20T11:16:36;527.95;;;471.77;;
34549;SDS011;66080;52.078;5.626;2023-12-20T11:19:05;520.92;;;465.13;;
34549;SDS011;66080;52.078;5.626;2023-12-20T11:21:31;534.78;;;478.55;;
34549;SDS011;66080;52.078;5.626;2023-12-20T11:23:58;538.97;;;482.17;;
34549;SDS011;66080;52.078;5.626;2023-12-20T11:26:28;540.97;;;484.55;;
34549;SDS011;66080;52.078;5.626;2023-12-20T11:28:54;539.13;;;482.85;;
34549;SDS011;66080;52.078;5.626;2023-12-20T11:31:20;532.63;;;476.58;;
34549;SDS011;66080;52.078;5.626;2023-12-20T11:33:46;550.10;;;493.67;;
34549;SDS011;66080;52.078;5.626;2023-12-20T11:36:19;549.03;;;492.40;;
34549;SDS011;66080;52.078;5.626;2023-12-20T11:38:53;557.53;;;500.25;;
34549;SDS011;66080;52.078;5.626;2023-12-20T11:41:21;580.83;;;523.28;;
34549;SDS011;66080;52.078;5.626;2023-12-20T11:43:48;585.28;;;527.90;;
34549;SDS011;66080;52.078;5.626;2023-12-20T11:46:14;587.15;;;529.38;;
34549;SDS011;66080;52.078;5.626;2023-12-20T11:48:40;590.03;;;532.07;;
34549;SDS011;66080;52.078;5.626;2023-12-20T11:51:10;600.17;;;542.15;;
34549;SDS011;66080;52.078;5.626;2023-12-20T11:53:36;601.00;;;542.72;;
34549;SDS011;66080;52.078;5.626;2023-12-20T11:56:02;601.75;;;543.47;;
34549;SDS011;66080;52.078;5.626;2023-12-20T11:58:28;602.20;;;543.88;;
34549;SDS011;66080;52.078;5.626;2023-12-20T12:00:55;604.63;;;546.22;;
34549;SDS011;66080;52.078;5.626;2023-12-20T12:03:21;602.92;;;544.60;;
34549;SDS011;66080;52.078;5.626;2023-12-20T12:05:48;593.83;;;535.90;;
34549;SDS011;66080;52.078;5.626;2023-12-20T12:08:15;591.90;;;533.90;;
34549;SDS011;66080;52.078;5.626;2023-12-20T12:10:41;588.88;;;530.90;;
34549;SDS011;66080;52.078;5.626;2023-12-20T12:13:07;595.80;;;537.30;;
34549;SDS011;66080;52.078;5.626;2023-12-20T12:15:33;594.55;;;536.63;;
34549;SDS011;66080;52.078;5.626;2023-12-20T12:17:59;600.33;;;541.53;;
34549;SDS011;66080;52.078;5.626;2023-12-20T12:20:25;599.70;;;541.30;;
34549;SDS011;66080;52.078;5.626;2023-12-20T12:22:59;599.00;;;540.67;;
34549;SDS011;66080;52.078;5.626;2023-12-20T12:25:26;602.40;;;544.03;;
34549;SDS011;66080;52.078;5.626;2023-12-20T12:27:52;598.93;;;540.63;;
34549;SDS011;66080;52.078;5.626;2023-12-20T12:30:18;601.03;;;542.75;;
34549;SDS011;66080;52.078;5.626;2023-12-20T12:32:44;600.55;;;542.25;;
34549;SDS011;66080;52.078;5.626;2023-12-20T12:35:10;598.40;;;540.15;;
34549;SDS011;66080;52.078;5.626;2023-12-20T12:37:37;587.57;;;529.67;;
34549;SDS011;66080;52.078;5.626;2023-12-20T12:40:05;590.93;;;532.80;;
34549;SDS011;66080;52.078;5.626;2023-12-20T12:42:31;589.05;;;531.40;;
34549;SDS011;66080;52.078;5.626;2023-12-20T12:44:57;598.28;;;540.17;;
34549;SDS011;66080;52.078;5.626;2023-12-20T12:47:23;603.85;;;545.65;;
34549;SDS011;66080;52.078;5.626;2023-12-20T12:49:49;608.10;;;549.33;;
34549;SDS011;66080;52.078;5.626;2023-12-20T12:52:16;607.65;;;549.30;;
34549;SDS011;66080;52.078;5.626;2023-12-20T12:54:42;605.75;;;547.22;;
34549;SDS011;66080;52.078;5.626;2023-12-20T12:57:09;608.33;;;549.85;;
34549;SDS011;66080;52.078;5.626;2023-12-20T12:59:35;608.63;;;550.13;;
34549;SDS011;66080;52.078;5.626;2023-12-20T13:02:01;608.92;;;550.63;;
34549;SDS011;66080;52.078;5.626;2023-12-20T13:04:27;606.75;;;547.80;;
34549;SDS011;66080;52.078;5.626;2023-12-20T13:06:53;597.83;;;539.78;;
34549;SDS011;66080;52.078;5.626;2023-12-20T13:09:20;600.50;;;542.30;;
34549;SDS011;66080;52.078;5.626;2023-12-20T13:11:46;609.42;;;550.75;;
34549;SDS011;66080;52.078;5.626;2023-12-20T13:14:12;608.50;;;550.13;;
34549;SDS011;66080;52.078;5.626;2023-12-20T13:16:40;605.25;;;546.78;;
34549;SDS011;66080;52.078;5.626;2023-12-20T13:19:06;608.58;;;550.13;;
34549;SDS011;66080;52.078;5.626;2023-12-20T13:21:32;606.03;;;547.88;;
34549;SDS011;66080;52.078;5.626;2023-12-20T13:23:58;598.40;;;540.20;;
34549;SDS011;66080;52.078;5.626;2023-12-20T13:26:24;597.58;;;539.28;;
34549;SDS011;66080;52.078;5.626;2023-12-20T13:28:50;592.37;;;534.17;;
34549;SDS011;66080;52.078;5.626;2023-12-20T13:31:16;598.72;;;540.42;;
34549;SDS011;66080;52.078;5.626;2023-12-20T13:33:42;596.03;;;537.80;;
34549;SDS011;66080;52.078;5.626;2023-12-20T13:36:08;600.83;;;542.70;;
34549;SDS011;66080;52.078;5.626;2023-12-20T13:38:34;608.42;;;549.88;;
34549;SDS011;66080;52.078;5.626;2023-12-20T13:41:00;615.72;;;556.95;;
34549;SDS011;66080;52.078;5.626;2023-12-20T13:43:26;612.85;;;554.10;;
34549;SDS011;66080;52.078;5.626;2023-12-20T13:45:52;611.65;;;553.38;;
34549;SDS011;66080;52.078;5.626;2023-12-20T13:48:18;613.28;;;554.65;;
34549;SDS011;66080;52.078;5.626;2023-12-20T13:50:44;615.00;;;556.50;;
34549;SDS011;66080;52.078;5.626;2023-12-20T13:53:10;619.53;;;560.83;;
34549;SDS011;66080;52.078;5.626;2023-12-20T13:55:36;618.80;;;560.08;;